• Join FlightAware (Why Join?)
  • Login
  • US Flag 
06:45PM EDT


 

Airport Tracker/Info


-or-


 

Live Flight TrackerFlight Track Log ✈ TCF3494 ✈ 24-Apr-2013 ✈ KORD - KLGA

Flight Track Log - Related Links

Times and Time Zones

All times are in EDT time to prevent confusion due to time zone crossing. See the TCF3494 flight status page for this flight to view local times or setup timezone preferences in your user account.

Time Position Orientation Groundspeed Altitude Reporting Facility
EDT Latitude Longitude Course Direction KTS MPH feet Rate Location/Type
04:14PM 41.9333 -87.9000 90° East 176 203 1,800  Level Chicago TRACON
04:15PM 41.9000 -87.8500 132° Southeast 229 264 3,800 2,340 Climbing Chicago TRACON
04:17PM 41.9432 -87.2714 95° East  Level FlightAware Approximate
04:17PM 41.8467 -87.6908 114° Southeast 271 312 9,200  Level Chicago Center
04:18PM 41.9333 -87.1145 90° East  Level FlightAware Approximate
04:18PM 41.8675 -87.5578 78° East 301 346 12,500  Level Chicago Center
04:19PM 41.9333 -86.9569 90° East  Level FlightAware Approximate
04:19PM 41.8861 -87.4383 78° East 326 375 14,400  Level Chicago Center
04:20PM 41.9333 -86.7993 90° East  Level FlightAware Approximate
04:21PM 41.9072 -87.3064 78° East 359 413 16,700  Level Chicago Center
04:22PM 41.9283 -87.1689 78° East 373 429 18,800 1,980 Climbing Chicago Center
04:23PM 41.9467 -87.0261 80° East 386 444 20,800 1,980 Climbing Chicago Center
04:24PM 41.9472 -86.8744 90° East 402 463 22,900 2,040 Climbing Chicago Center
04:25PM 41.9500 -86.6908 89° East 411 473 25,100 1,560 Climbing Chicago Center
04:26PM 41.9519 -86.5500 89° East 423 487 26,200 960 Climbing Chicago Center
04:27PM 41.9539 -86.3847 89° East 440 506 27,200 1,080 Climbing Chicago Center
04:28PM 41.9531 -86.1775 90° East 460 529 28,500 840 Climbing Chicago Center
04:29PM 41.9367 -86.0047 97° East 466 536 29,000 240 Climbing Chicago Center
04:30PM 41.9192 -85.8319 98° East 466 536 29,000  Level Chicago Center
04:31PM 41.9031 -85.6567 97° East 470 541 29,000  Level Chicago Center
04:32PM 41.8861 -85.4786 97° East 475 547 29,000  Level Chicago Center
04:33PM 41.8692 -85.3028 97° East 470 541 29,000  Level Chicago Center
04:34PM 41.8506 -85.1297 98° East 465 535 29,000  Level Chicago Center
04:34PM 41.8456 -85.0547 95° East 472 543 29,000  Level Cleveland Center
04:35PM 41.8272 -84.8833 98° East 464 534 29,000  Level Cleveland Center
04:36PM 41.8086 -84.7094 98° East 464 534 29,000  Level Cleveland Center
04:37PM 41.7894 -84.5381 98° East 464 534 29,000  Level Cleveland Center
04:38PM 41.7808 -84.3622 94° East 469 540 29,000  Level Cleveland Center
04:39PM 41.7747 -84.1667 92° East 469 540 29,000  Level Cleveland Center
04:40PM 41.7739 -83.9886 90° East 474 545 29,000  Level Cleveland Center
04:41PM 41.7728 -83.8103 90° East 474 545 29,000  Level Cleveland Center
04:42PM 41.7714 -83.6347 91° East 474 545 29,000  Level Cleveland Center
04:43PM 41.7611 -83.4617 94° East 474 545 29,000  Level Cleveland Center
04:44PM 41.7444 -83.2883 97° East 474 545 29,000  Level Cleveland Center
04:45PM 41.7275 -83.1178 98° East 468 539 29,000  Level Cleveland Center
04:46PM 41.7122 -82.9642 98° East 468 539 29,000  Level Cleveland Center
04:47PM 41.6947 -82.7967 98° East 468 539 29,000  Level Cleveland Center
04:48PM 41.6769 -82.6264 98° East 468 539 29,000  Level Cleveland Center
04:49PM 41.6569 -82.4564 99° East 468 539 29,000  Level Cleveland Center
04:50PM 41.6392 -82.2669 97° East 473 544 29,000  Level Cleveland Center
04:51PM 41.6206 -82.0969 98° East 467 537 29,000  Level Cleveland Center
04:52PM 41.6039 -81.9272 97° East 467 537 29,000  Level Cleveland Center
04:53PM 41.5850 -81.7603 99° East 467 537 29,000  Level Cleveland Center
04:54PM 41.5658 -81.5878 98° East 467 537 29,000  Level Cleveland Center
04:55PM 41.5483 -81.4350 99° East 467 537 29,000  Level Cleveland Center
04:56PM 41.5264 -81.2628 100° East 467 537 29,000  Level Cleveland Center
04:57PM 41.5086 -81.0933 98° East 467 537 29,000  Level Cleveland Center
04:58PM 41.4947 -80.9214 96° East 467 537 29,000  Level Cleveland Center
04:59PM 41.4764 -80.7328 97° East 467 537 29,000  Level Cleveland Center
05:00PM 41.4617 -80.5611 96° East 467 537 29,000  Level Cleveland Center
05:01PM 41.4469 -80.3919 97° East 462 532 29,000  Level Cleveland Center
05:02PM 41.4319 -80.2342 97° East 467 537 29,000  Level Cleveland Center
05:03PM 41.4169 -80.0653 97° East 467 537 29,000  Level Cleveland Center
05:04PM 41.3992 -79.8856 97° East 462 532 29,000  Level Cleveland Center
05:05PM 41.3814 -79.7169 98° East 457 526 29,000  Level Cleveland Center
05:06PM 41.3675 -79.5650 97° East 457 526 29,000  Level Cleveland Center
05:07PM 41.3514 -79.4019 97° East 457 526 29,000  Level Cleveland Center
05:08PM 41.3306 -79.2172 98° East 457 526 29,000  Level Cleveland Center
05:09PM 41.3139 -79.0544 98° East 457 526 29,000  Level Cleveland Center
05:10PM 41.2994 -78.9056 97° East 452 520 29,000  Level Cleveland Center
05:11PM 41.2822 -78.7400 98° East 452 520 29,000  Level Cleveland Center
05:12PM 41.2628 -78.5750 99° East 452 520 29,000  Level Cleveland Center
05:14PM 41.2286 -78.2642 98° East 445 512 29,000  Level New York Center
05:15PM 41.2097 -78.0994 99° East 445 512 29,000  Level New York Center
05:16PM 41.1889 -77.9289 99° East 456 525 29,000 -120 Level New York Center
05:17PM 41.1675 -77.7639 100° East 456 525 28,800 -300 Descending New York Center
05:18PM 41.1478 -77.6019 99° East 450 518 28,500 -480 Descending New York Center
05:19PM 41.1258 -77.4372 100° East 450 518 27,900 -660 Descending New York Center
05:20PM 41.1039 -77.2725 100° East 450 518 27,300 -480 Descending New York Center
05:21PM 41.0831 -77.1136 100° East 450 518 27,000 -180 Descending New York Center
05:22PM 41.0603 -76.9544 101° East 450 518 27,000  Level New York Center
05:23PM 41.0414 -76.7958 99° East 445 512 27,000 -1,080 Level New York Center
05:24PM 41.0158 -76.6425 102° East 439 505 24,900 -2,100 Descending New York Center
05:25PM 40.9792 -76.4964 108° East 421 484 22,800 -2,040 Descending New York Center
05:26PM 40.9467 -76.3506 106° East 421 484 20,900 -2,100 Descending New York Center
05:27PM 40.9133 -76.2106 107° East 408 470 18,700 -1,980 Descending New York Center
05:28PM 40.8800 -76.0761 108° East 396 456 17,000 -1,680 Descending New York Center
05:29PM 40.8481 -75.9475 108° East 381 438 15,300 -1,740 Descending New York Center
05:30PM 40.8164 -75.8161 108° East 376 433 13,600 -1,200 Descending New York Center
05:31PM 40.7844 -75.6850 108° East 371 427 13,000 -300 Descending New York Center
05:32PM 40.7578 -75.5736 108° East 371 427 13,000  Level New York Center
05:33PM 40.7217 -75.4314 108° East 371 427 13,000  Level New York Center
05:34PM 40.6956 -75.3008 105° East 371 427 13,000 -60 Level New York Center
05:35PM 40.6728 -75.1844 104° East 364 419 12,900 -1,020 Descending New York Center
05:36PM 40.6183 -75.0797 124° Southeast 353 406 11,100 -1,500 Descending New York Center
05:37PM 40.5597 -74.9722 126° Southeast 334 384 9,900 -540 Descending New York Center
05:38PM 40.5167 -74.8500 115° Southeast 346 398 10,100  Climbing New York TRACON
05:39PM 40.5000 -74.7500 102° East 282 325 10,000  Descending New York TRACON
05:40PM 40.4667 -74.6833 123° Southeast 236 272 10,100  Climbing New York TRACON
05:41PM 40.4500 -74.6000 105° East 239 275 10,100  Level New York TRACON
05:42PM 40.4167 -74.5167 118° Southeast 242 278 10,100  Level New York TRACON
05:43PM 40.4000 -74.4333 105° East 240 276 10,100 -300 Level New York TRACON
05:44PM 40.4000 -74.3333 90° East 255 293 9,500 -900 Descending New York TRACON
05:45PM 40.4500 -74.2833 37° Northeast 247 284 8,300 -1,200 Descending New York TRACON
05:46PM 40.5000 -74.2167 45° Northeast 243 280 7,100 -900 Descending New York TRACON
05:47PM 40.5500 -74.1667 37° Northeast 242 278 6,500 -1,020 Descending New York TRACON
05:48PM 40.6000 -74.1167 37° Northeast 240 276 5,100 -1,200 Descending New York TRACON
05:49PM 40.6500 -74.0667 37° Northeast 227 261 4,100 -540 Descending New York TRACON
05:50PM 40.7000 -74.0333 27° Northeast 223 257 4,100  Level New York TRACON
05:51PM 40.7667 -74.0000 21° North 220 253 4,100  Level New York TRACON
05:52PM 40.8167 -73.9667 27° Northeast 221 254 4,100  Level New York TRACON
05:53PM 40.8833 -73.9333 21° North 223 257 4,100  Level New York TRACON
05:54PM 40.9333 -73.9000 27° Northeast 220 253 4,100 -300 Level New York TRACON
05:55PM 40.9667 -73.8500 49° Northeast 218 251 3,600 -540 Descending New York TRACON
05:56PM 40.9833 -73.7667 75° East 217 250 3,100 -300 Descending New York TRACON
05:57PM 40.9500 -73.7333 143° Southeast 180 207 3,100 -60 Level New York TRACON
05:58PM 40.9167 -73.7667 217° Southwest 164 189 3,000 -480 Descending New York TRACON
05:59PM 40.8667 -73.8000 207° Southwest 169 194 2,100 -840 Descending New York TRACON